Time;durP1;ratioP1;P1;durP2;ratioP2;P2;SDS_P1;SDS_P2;PMS_P1;PMS_P2;Temp;Humidity;BMP_temperature;BMP_pressure;BME280_temperature;BME280_humidity;BME280_pressure;Samples;Min_cycle;Max_cycle;Signal;HPM_P1;HPM_P2
2021/12/14 00:01:25;;;;;;;15.57;10.98;;;8.90;99.90;;;;;;5094639;28;20032;-70
2021/12/14 00:04:03;;;;;;;15.43;11.10;;;8.90;99.90;;;;;;5094721;28;20507;-70
2021/12/14 00:06:29;;;;;;;15.68;11.43;;;9.00;99.90;;;;;;5094650;28;20040;-69
2021/12/14 00:08:57;;;;;;;14.25;10.55;;;9.00;99.90;;;;;;5094863;28;20050;-69
2021/12/14 00:11:49;;;;;;;14.02;10.60;;;9.00;99.90;;;;;;5094120;28;20477;-69
2021/12/14 00:17:07;;;;;;;16.95;11.75;;;8.90;99.90;;;;;;5094228;28;20127;-70
2021/12/14 00:19:33;;;;;;;16.85;10.77;;;9.00;99.90;;;;;;5093396;28;20035;-68
2021/12/14 00:22:06;;;;;;;16.23;11.25;;;9.00;99.90;;;;;;5094337;28;20056;-69
2021/12/14 00:24:33;;;;;;;17.63;12.32;;;8.90;99.90;;;;;;5094568;28;20067;-70
2021/12/14 00:27:04;;;;;;;17.80;12.15;;;8.90;99.90;;;;;;5094262;28;20040;-69
2021/12/14 00:29:35;;;;;;;15.82;11.55;;;9.00;99.90;;;;;;5094095;28;20071;-69
2021/12/14 00:32:06;;;;;;;16.00;11.50;;;9.00;99.90;;;;;;5092941;28;20044;-69
2021/12/14 00:34:38;;;;;;;15.73;11.48;;;9.00;99.90;;;;;;5094049;28;20131;-70
2021/12/14 00:37:07;;;;;;;17.17;11.82;;;9.00;99.90;;;;;;5093688;28;20462;-70
2021/12/14 00:39:33;;;;;;;18.00;11.85;;;9.00;99.90;;;;;;5092866;28;20525;-70
2021/12/14 00:41:59;;;;;;;18.20;11.38;;;9.00;99.90;;;;;;5093915;28;20415;-69
2021/12/14 00:44:25;;;;;;;16.52;11.27;;;9.00;99.90;;;;;;5092695;28;20465;-69
2021/12/14 00:46:51;;;;;;;16.60;12.07;;;9.00;99.90;;;;;;5093674;28;20043;-69
2021/12/14 00:49:17;;;;;;;17.63;11.43;;;9.00;99.90;;;;;;5093949;28;20074;-69
2021/12/14 00:51:43;;;;;;;17.30;11.93;;;9.00;99.90;;;;;;5093859;28;20106;-69
2021/12/14 00:54:12;;;;;;;16.67;12.40;;;9.00;99.90;;;;;;5094028;28;20046;-70
2021/12/14 00:56:39;;;;;;;18.15;11.98;;;9.00;99.90;;;;;;5093386;28;20044;-70
2021/12/14 00:59:07;;;;;;;17.85;11.90;;;9.00;99.90;;;;;;5093819;28;20047;-70
2021/12/14 01:01:39;;;;;;;16.98;12.55;;;9.00;99.90;;;;;;5092919;28;20407;-69
2021/12/14 01:04:10;;;;;;;16.50;11.80;;;9.10;99.90;;;;;;5093867;28;20040;-71
2021/12/14 01:06:44;;;;;;;19.70;11.60;;;9.00;99.90;;;;;;5092525;28;20124;-69
2021/12/14 01:09:12;;;;;;;15.18;11.45;;;9.00;99.90;;;;;;5094106;28;20040;-70
2021/12/14 01:11:43;;;;;;;16.40;12.77;;;9.00;99.90;;;;;;5092892;28;20480;-70
2021/12/14 01:14:27;;;;;;;16.88;11.95;;;8.90;99.90;;;;;;5093951;28;20062;-69
2021/12/14 01:17:11;;;;;;;17.27;12.02;;;8.90;99.90;;;;;;5093317;28;20040;-70
2021/12/14 01:19:43;;;;;;;16.90;11.57;;;8.90;99.90;;;;;;5093380;28;20396;-70
2021/12/14 01:22:31;;;;;;;17.17;12.88;;;8.90;99.90;;;;;;5092287;28;20477;-69
2021/12/14 01:25:07;;;;;;;15.65;12.32;;;8.90;99.90;;;;;;5092226;28;20789;-69
2021/12/14 01:27:44;;;;;;;16.25;11.90;;;8.90;99.90;;;;;;5093519;28;20044;-70
2021/12/14 01:30:30;;;;;;;20.95;12.40;;;8.80;99.90;;;;;;5093954;28;20036;-69
2021/12/14 01:33:01;;;;;;;17.13;12.93;;;8.80;99.90;;;;;;5093245;28;20463;-69
2021/12/14 01:35:30;;;;;;;15.43;11.75;;;8.80;99.90;;;;;;5093329;28;20105;-69
2021/12/14 01:38:02;;;;;;;19.20;12.52;;;8.80;99.90;;;;;;5093711;28;20044;-69
2021/12/14 01:40:53;;;;;;;29.40;12.43;;;8.80;99.90;;;;;;5093440;28;20123;-70
2021/12/14 01:43:49;;;;;;;17.75;12.73;;;8.80;99.90;;;;;;5072297;28;20083;-69
2021/12/14 01:46:24;;;;;;;20.00;13.55;;;8.80;99.90;;;;;;5063635;28;20053;-69
2021/12/14 01:48:50;;;;;;;;;;;8.80;99.90;;;;;;5073794;28;20112;-70
2021/12/14 01:51:17;;;;;;;18.13;11.98;;;8.80;99.90;;;;;;5078451;28;20317;-69
2021/12/14 01:53:46;;;;;;;19.15;13.05;;;8.80;99.90;;;;;;5093076;28;20423;-70
2021/12/14 01:56:15;;;;;;;19.70;13.32;;;8.90;99.90;;;;;;5093273;28;20044;-70
2021/12/14 01:58:46;;;;;;;22.30;14.00;;;8.90;99.90;;;;;;5093316;28;20040;-69
2021/12/14 02:01:19;;;;;;;18.05;13.38;;;8.90;99.90;;;;;;5093420;28;20131;-70
2021/12/14 02:03:51;;;;;;;21.13;14.48;;;8.80;99.90;;;;;;5093147;28;20052;-69
2021/12/14 02:06:25;;;;;;;19.75;14.15;;;8.80;99.90;;;;;;5093224;28;20042;-69
2021/12/14 02:09:04;;;;;;;20.92;14.73;;;8.80;99.90;;;;;;5093426;28;20127;-70
2021/12/14 02:11:36;;;;;;;20.95;14.18;;;8.80;99.90;;;;;;5093094;28;20047;-69
2021/12/14 02:14:04;;;;;;;20.02;13.93;;;8.90;99.90;;;;;;5093297;28;20044;-70
2021/12/14 02:16:31;;;;;;;24.65;15.05;;;8.80;99.90;;;;;;5092876;28;20043;-70
2021/12/14 02:19:06;;;;;;;21.48;14.73;;;8.90;99.90;;;;;;5092960;28;20480;-69
2021/12/14 02:21:32;;;;;;;21.48;14.95;;;8.80;99.90;;;;;;5092569;28;20059;-70
2021/12/14 02:24:00;;;;;;;23.23;15.23;;;8.90;99.90;;;;;;5096745;28;20097;-70
2021/12/14 02:26:29;;;;;;;23.33;16.17;;;8.90;99.90;;;;;;5096467;28;20044;-69
2021/12/14 02:28:59;;;;;;;26.50;15.27;;;8.90;99.90;;;;;;5096324;28;20144;-69
2021/12/14 02:31:26;;;;;;;21.00;15.68;;;8.80;99.90;;;;;;5096160;28;20403;-69
2021/12/14 02:33:56;;;;;;;22.70;15.45;;;8.80;99.90;;;;;;5096654;28;20036;-69
2021/12/14 02:36:36;;;;;;;22.38;15.75;;;8.80;99.90;;;;;;5094993;28;20052;-69
2021/12/14 02:39:09;;;;;;;24.45;17.48;;;8.80;99.90;;;;;;5096707;28;20044;-69
2021/12/14 02:41:45;;;;;;;26.05;17.30;;;8.90;99.90;;;;;;5095984;28;20358;-69
2021/12/14 02:44:11;;;;;;;24.70;17.00;;;8.90;99.90;;;;;;5096699;28;20048;-69
2021/12/14 02:46:41;;;;;;;24.77;16.98;;;8.80;99.90;;;;;;5095979;28;20032;-70
2021/12/14 02:49:19;;;;;;;25.05;16.80;;;8.90;99.90;;;;;;5096711;28;20346;-69
2021/12/14 02:51:49;;;;;;;26.25;18.48;;;8.90;99.90;;;;;;5095897;28;20036;-69
2021/12/14 02:54:25;;;;;;;25.63;17.42;;;8.80;99.90;;;;;;5095982;28;20410;-69
2021/12/14 02:56:57;;;;;;;24.38;17.95;;;8.80;99.90;;;;;;5095964;28;20111;-69
2021/12/14 02:59:29;;;;;;;26.60;17.75;;;8.80;99.90;;;;;;5096161;28;20048;-68
2021/12/14 03:02:03;;;;;;;25.92;16.90;;;8.80;99.90;;;;;;5095408;28;20418;-70
2021/12/14 03:04:30;;;;;;;30.42;18.08;;;8.80;99.90;;;;;;5094508;28;20044;-69
2021/12/14 03:06:58;;;;;;;26.73;19.10;;;8.80;99.90;;;;;;5096081;28;20036;-69
2021/12/14 03:12:16;;;;;;;27.92;18.60;;;8.70;99.90;;;;;;5095908;28;20048;-69
2021/12/14 03:14:53;;;;;;;25.52;18.30;;;8.80;99.90;;;;;;5095765;28;20035;-69
2021/12/14 03:17:19;;;;;;;27.52;18.65;;;8.80;99.90;;;;;;5095388;28;20461;-70
2021/12/14 03:19:59;;;;;;;28.20;18.67;;;8.80;99.90;;;;;;5094475;28;20048;-69
2021/12/14 03:22:33;;;;;;;27.90;19.15;;;8.90;99.90;;;;;;5095469;28;20113;-69
2021/12/14 03:24:59;;;;;;;27.63;18.52;;;8.90;99.90;;;;;;5095357;28;20051;-69
2021/12/14 03:27:26;;;;;;;28.52;19.05;;;8.90;99.90;;;;;;5095154;28;20040;-69
2021/12/14 03:29:52;;;;;;;27.10;18.67;;;8.80;99.90;;;;;;5095133;28;20448;-69
2021/12/14 03:32:18;;;;;;;28.15;19.17;;;8.80;99.90;;;;;;5095175;28;20039;-69
2021/12/14 03:34:45;;;;;;;30.17;19.95;;;8.80;99.90;;;;;;5095292;28;20171;-69
2021/12/14 03:37:21;;;;;;;28.10;19.73;;;8.80;99.90;;;;;;5095500;28;20343;-70
2021/12/14 03:39:51;;;;;;;28.52;19.30;;;8.80;99.90;;;;;;5095092;28;20419;-69
2021/12/14 03:42:26;;;;;;;30.70;20.25;;;8.70;99.90;;;;;;5095015;28;20036;-69
2021/12/14 03:44:57;;;;;;;26.90;18.52;;;8.80;99.90;;;;;;5095001;28;20040;-69
2021/12/14 03:47:26;;;;;;;26.63;19.25;;;8.70;99.90;;;;;;5093968;28;20395;-69
2021/12/14 03:49:56;;;;;;;30.23;19.88;;;8.70;99.90;;;;;;5095035;28;20054;-69
2021/12/14 03:52:25;;;;;;;29.17;19.60;;;8.70;99.90;;;;;;5094869;28;20380;-69
2021/12/14 03:54:51;;;;;;;27.48;18.58;;;8.70;99.90;;;;;;5094926;28;20338;-69
2021/12/14 03:57:17;;;;;;;28.95;19.85;;;8.70;99.90;;;;;;5094987;28;20070;-70
2021/12/14 03:59:43;;;;;;;27.52;20.08;;;8.70;99.90;;;;;;5094404;28;20079;-70
2021/12/14 04:02:12;;;;;;;26.92;19.15;;;8.70;99.90;;;;;;5093304;28;20093;-70
2021/12/14 04:04:43;;;;;;;28.67;19.63;;;8.70;99.90;;;;;;5094538;28;20044;-69
2021/12/14 04:07:12;;;;;;;27.98;20.05;;;8.70;99.90;;;;;;5094980;28;20071;-70
2021/12/14 04:09:40;;;;;;;27.60;19.63;;;8.70;99.90;;;;;;5094679;28;20032;-70
2021/12/14 04:12:10;;;;;;;29.58;21.08;;;8.70;99.90;;;;;;5094424;28;20044;-70
2021/12/14 04:14:40;;;;;;;27.83;19.60;;;8.70;99.90;;;;;;5093406;28;20043;-70
2021/12/14 04:17:07;;;;;;;31.50;19.88;;;8.70;99.90;;;;;;5094347;28;20484;-70
2021/12/14 04:19:35;;;;;;;28.35;20.10;;;8.60;99.90;;;;;;5094021;28;20369;-68
2021/12/14 04:22:07;;;;;;;30.38;21.83;;;8.60;99.90;;;;;;5093991;28;20377;-70
2021/12/14 04:24:36;;;;;;;28.17;19.52;;;8.50;99.90;;;;;;5093426;28;20032;-69
2021/12/14 04:27:07;;;;;;;30.10;21.13;;;8.50;99.90;;;;;;5094441;28;20046;-69
2021/12/14 04:29:33;;;;;;;28.98;20.85;;;8.50;99.90;;;;;;5094400;28;20036;-70
2021/12/14 04:32:00;;;;;;;30.02;20.85;;;8.40;99.90;;;;;;5094060;28;20048;-69
2021/12/14 04:34:30;;;;;;;31.90;22.17;;;8.40;99.90;;;;;;5093806;28;20055;-70
2021/12/14 04:36:56;;;;;;;30.65;21.10;;;8.50;99.90;;;;;;5094316;28;20062;-69
2021/12/14 04:53:21;;;;;;;28.15;20.48;;;8.50;99.90;;;;;;5093897;28;20083;-70
2021/12/14 04:55:50;;;;;;;31.20;21.80;;;8.50;99.90;;;;;;5093747;28;20112;-69
2021/12/14 04:58:27;;;;;;;30.80;22.15;;;8.40;99.90;;;;;;5094000;28;20055;-69
2021/12/14 05:00:53;;;;;;;31.75;22.73;;;8.50;99.90;;;;;;5093388;28;20476;-70
2021/12/14 05:03:44;;;;;;;29.73;22.00;;;8.50;99.90;;;;;;5093785;28;20066;-70
2021/12/14 05:06:16;;;;;;;35.25;22.00;;;8.50;99.90;;;;;;5083929;28;20373;-70
2021/12/14 05:11:22;;;;;;;32.72;21.67;;;8.50;99.90;;;;;;5093549;28;20040;-70
2021/12/14 05:13:58;;;;;;;31.15;22.52;;;8.50;99.90;;;;;;5093790;28;20068;-70
2021/12/14 05:16:26;;;;;;;35.13;23.63;;;8.60;99.90;;;;;;5093063;28;20458;-69
2021/12/14 05:18:56;;;;;;;32.58;23.10;;;8.60;99.90;;;;;;5093642;28;20050;-70
2021/12/14 05:21:27;;;;;;;34.33;23.70;;;8.60;99.90;;;;;;5092970;28;20056;-70
2021/12/14 05:23:53;;;;;;;34.15;23.33;;;8.60;99.90;;;;;;5093331;28;20526;-70
2021/12/14 05:26:21;;;;;;;33.03;22.50;;;8.50;99.90;;;;;;5093296;28;20032;-70
2021/12/14 05:28:47;;;;;;;34.53;25.00;;;8.50;99.90;;;;;;5093564;28;20036;-70
2021/12/14 05:31:13;;;;;;;35.22;25.20;;;8.60;99.90;;;;;;5093502;28;20063;-70
2021/12/14 05:33:39;;;;;;;35.50;23.52;;;8.50;99.90;;;;;;5093698;28;20040;-70
2021/12/14 05:36:13;;;;;;;32.97;24.10;;;8.50;99.90;;;;;;5093180;28;20071;-70
2021/12/14 05:38:57;;;;;;;35.15;25.35;;;8.60;99.90;;;;;;5093454;28;20453;-69
2021/12/14 05:44:19;;;;;;;35.17;24.38;;;8.60;99.90;;;;;;5093157;28;20040;-70
2021/12/14 05:46:50;;;;;;;36.75;25.23;;;8.50;99.90;;;;;;5093214;28;20040;-70
2021/12/14 05:49:23;;;;;;;34.53;24.83;;;8.50;99.90;;;;;;5093478;28;20118;-70
2021/12/14 05:51:51;;;;;;;35.28;24.63;;;8.50;99.90;;;;;;5085837;28;20040;-70
2021/12/14 05:54:30;;;;;;;37.85;25.92;;;8.50;99.90;;;;;;5086966;28;20063;-70
2021/12/14 05:57:00;;;;;;;36.67;24.73;;;8.50;99.90;;;;;;5073647;28;20361;-69
2021/12/14 05:59:29;;;;;;;35.33;25.67;;;8.50;99.90;;;;;;5077704;28;20083;-69
2021/12/14 06:01:57;;;;;;;38.20;26.35;;;8.50;99.90;;;;;;5075174;28;20393;-70
2021/12/14 06:04:27;;;;;;;35.90;25.00;;;8.50;99.90;;;;;;5074786;28;20532;-69
2021/12/14 06:06:55;;;;;;;36.42;25.45;;;8.50;99.90;;;;;;5075715;28;20052;-69
2021/12/14 06:09:24;;;;;;;37.17;26.48;;;8.50;99.90;;;;;;5076026;28;20090;-69
2021/12/14 06:11:55;;;;;;;37.88;27.30;;;8.50;99.90;;;;;;5086197;28;20107;-69
2021/12/14 06:14:26;;;;;;;42.22;28.67;;;8.50;99.90;;;;;;5075869;28;20350;-69
2021/12/14 06:16:56;;;;;;;39.85;27.67;;;8.50;99.90;;;;;;5074828;28;20117;-70
2021/12/14 06:19:29;;;;;;;37.83;27.08;;;8.50;99.90;;;;;;5074981;28;20443;-70
2021/12/14 06:22:02;;;;;;;38.55;26.45;;;8.50;99.90;;;;;;5084983;28;20130;-71
2021/12/14 06:24:30;;;;;;;40.33;28.25;;;8.50;99.90;;;;;;5096644;28;20110;-71
2021/12/14 06:26:59;;;;;;;38.63;25.95;;;8.50;99.90;;;;;;5096850;28;20067;-64
2021/12/14 06:29:45;;;;;;;37.85;27.20;;;8.60;99.90;;;;;;5096567;28;20123;-68
2021/12/14 06:32:12;;;;;;;40.20;27.70;;;8.60;99.90;;;;;;5092711;28;20078;-69
2021/12/14 06:34:45;;;;;;;39.00;28.17;;;8.60;99.90;;;;;;5075696;28;20098;-70
2021/12/14 06:37:23;;;;;;;42.17;28.17;;;8.60;99.90;;;;;;5076530;28;20072;-70
2021/12/14 06:40:15;;;;;;;39.92;28.10;;;8.50;99.90;;;;;;5076278;28;20079;-69
2021/12/14 06:42:43;;;;;;;37.47;27.15;;;8.50;99.90;;;;;;5086876;28;20075;-69
2021/12/14 06:45:16;;;;;;;41.00;28.63;;;8.50;99.90;;;;;;5096309;28;20055;-70
2021/12/14 06:47:44;;;;;;;41.22;29.25;;;8.50;99.90;;;;;;5096503;28;20075;-69
2021/12/14 06:50:17;;;;;;;44.15;28.73;;;8.50;99.90;;;;;;5085176;28;20098;-69
2021/12/14 06:52:43;;;;;;;40.45;28.60;;;8.60;99.90;;;;;;5089702;28;20052;-70
2021/12/14 06:55:22;;;;;;;38.08;27.67;;;8.50;99.90;;;;;;5088080;28;20066;-69
2021/12/14 06:57:47;;;;;;;42.17;29.85;;;8.50;99.90;;;;;;5075337;28;20048;-70
2021/12/14 07:00:14;;;;;;;38.33;28.10;;;8.50;99.90;;;;;;5075863;28;20111;-70
2021/12/14 07:02:47;;;;;;;38.53;28.02;;;8.50;99.90;;;;;;5090111;28;20047;-70
2021/12/14 07:05:24;;;;;;;40.43;28.37;;;8.50;99.90;;;;;;5096354;28;20051;-70
2021/12/14 07:07:51;;;;;;;44.08;30.00;;;8.50;99.90;;;;;;5095353;28;20079;-70
2021/12/14 07:10:18;;;;;;;41.17;29.50;;;8.50;99.90;;;;;;5095666;28;20449;-70
2021/12/14 07:12:44;;;;;;;43.50;30.15;;;8.50;99.90;;;;;;5095765;28;20048;-69
2021/12/14 07:15:24;;;;;;;44.60;29.23;;;8.50;99.90;;;;;;5095863;28;20342;-70
2021/12/14 07:18:01;;;;;;;41.70;29.40;;;8.50;99.90;;;;;;5095305;28;20039;-70
2021/12/14 07:20:32;;;;;;;42.10;28.40;;;8.50;99.90;;;;;;5095408;28;20044;-69
2021/12/14 07:23:17;;;;;;;39.88;28.27;;;8.50;99.90;;;;;;5095468;28;20127;-70
2021/12/14 07:25:48;;;;;;;41.63;29.33;;;8.50;99.90;;;;;;5095789;28;20040;-70
2021/12/14 07:28:16;;;;;;;41.10;27.75;;;8.50;99.90;;;;;;5095382;28;20032;-69
2021/12/14 07:30:54;;;;;;;43.92;30.17;;;8.50;99.90;;;;;;5095309;28;20072;-68
2021/12/14 07:33:34;;;;;;;43.28;28.67;;;8.50;99.90;;;;;;5095278;28;20039;-68
2021/12/14 07:36:11;;;;;;;42.15;29.17;;;8.40;99.90;;;;;;5095313;28;20044;-69
2021/12/14 07:38:50;;;;;;;44.83;29.42;;;8.50;99.90;;;;;;5094979;28;20048;-69
2021/12/14 07:41:23;;;;;;;41.50;29.08;;;8.50;99.90;;;;;;5095032;28;20146;-69
2021/12/14 07:44:06;;;;;;;40.30;28.10;;;8.40;99.90;;;;;;5093934;28;20196;-69
2021/12/14 07:46:45;;;;;;;40.17;27.83;;;8.50;99.90;;;;;;5095021;28;20574;-69
2021/12/14 07:49:26;;;;;;;43.33;29.50;;;8.40;99.90;;;;;;5095457;28;20036;-69
2021/12/14 07:52:02;;;;;;;39.22;27.98;;;8.40;99.90;;;;;;5094837;28;20054;-69
2021/12/14 07:54:31;;;;;;;40.60;28.38;;;8.40;99.90;;;;;;5095233;28;20115;-68
2021/12/14 07:57:26;;;;;;;42.35;29.10;;;8.40;99.90;;;;;;5094804;28;20062;-69
2021/12/14 07:59:56;;;;;;;40.27;28.47;;;8.40;99.90;;;;;;5094032;28;20592;-68
2021/12/14 08:02:23;;;;;;;41.03;28.77;;;8.40;99.90;;;;;;5094174;28;20314;-69
2021/12/14 08:04:49;;;;;;;40.67;29.05;;;8.40;99.90;;;;;;5094806;28;20064;-68
2021/12/14 08:07:25;;;;;;;43.85;28.42;;;8.40;99.90;;;;;;5094564;28;20094;-69
2021/12/14 08:09:52;;;;;;;39.88;29.00;;;8.50;99.90;;;;;;5094901;28;20046;-69
2021/12/14 08:12:38;;;;;;;41.33;28.40;;;8.50;99.90;;;;;;5094433;28;20044;-69
2021/12/14 08:15:12;;;;;;;40.40;28.90;;;8.50;99.90;;;;;;5094807;28;20156;-69
2021/12/14 08:17:39;;;;;;;42.28;28.63;;;8.50;99.90;;;;;;5094047;28;20115;-69
2021/12/14 08:20:07;;;;;;;40.60;28.98;;;8.50;99.90;;;;;;5077170;28;20122;-69
2021/12/14 08:22:36;;;;;;;43.78;29.67;;;8.50;99.90;;;;;;5074688;28;20072;-68
2021/12/14 08:25:05;;;;;;;39.97;29.20;;;8.50;99.90;;;;;;5073789;28;20063;-68
2021/12/14 08:27:31;;;;;;;42.03;27.95;;;8.50;99.90;;;;;;5073494;28;20038;-71
2021/12/14 08:30:00;;;;;;;39.05;28.88;;;8.50;99.90;;;;;;5073795;28;20424;-70
2021/12/14 08:32:31;;;;;;;41.78;28.80;;;8.50;99.90;;;;;;5084442;28;20044;-70
2021/12/14 08:35:00;;;;;;;40.75;28.17;;;8.50;99.90;;;;;;5094538;28;20126;-69
2021/12/14 08:37:28;;;;;;;36.67;26.70;;;8.60;99.90;;;;;;5093797;28;20044;-70
2021/12/14 08:40:05;;;;;;;38.90;26.67;;;8.60;99.90;;;;;;5094144;28;20035;-70
2021/12/14 08:42:46;;;;;;;38.75;27.85;;;8.60;99.90;;;;;;5093984;28;20044;-70
2021/12/14 08:45:25;;;;;;;39.80;26.83;;;8.60;99.90;;;;;;5092836;28;20055;-70
2021/12/14 08:48:18;;;;;;;38.75;26.85;;;8.60;99.90;;;;;;5092550;28;20083;-70
2021/12/14 08:50:53;;;;;;;38.45;26.90;;;8.60;99.90;;;;;;5093855;28;20031;-69
2021/12/14 08:53:23;;;;;;;36.67;25.23;;;8.60;99.90;;;;;;5077651;28;20122;-69
2021/12/14 08:55:54;;;;;;;36.63;26.88;;;8.70;99.90;;;;;;5073718;28;20044;-70
2021/12/14 08:58:21;;;;;;;36.47;24.13;;;8.70;99.90;;;;;;5073066;28;20098;-70
2021/12/14 09:00:52;;;;;;;37.42;26.90;;;8.70;99.90;;;;;;5073591;28;20040;-70
2021/12/14 09:03:31;;;;;;;35.15;24.30;;;8.70;99.90;;;;;;5092196;28;20044;-70
2021/12/14 09:05:57;;;;;;;40.63;25.67;;;8.70;99.90;;;;;;5092899;28;20055;-70
2021/12/14 09:08:23;;;;;;;35.35;25.67;;;8.70;99.90;;;;;;5093504;28;20032;-70
2021/12/14 09:10:53;;;;;;;33.13;24.95;;;8.70;99.90;;;;;;5093527;28;20124;-70
2021/12/14 09:13:19;;;;;;;36.78;25.42;;;8.80;99.90;;;;;;5082840;28;20037;-69
2021/12/14 09:15:50;;;;;;;36.75;25.00;;;8.80;99.90;;;;;;5073658;28;20051;-70
2021/12/14 09:18:18;;;;;;;37.92;25.35;;;8.80;99.90;;;;;;5073246;28;20052;-70
2021/12/14 09:20:54;;;;;;;34.67;24.80;;;8.80;99.90;;;;;;5072864;28;20140;-72
2021/12/14 09:23:23;;;;;;;32.90;23.70;;;8.80;99.90;;;;;;5089454;28;20041;-70
2021/12/14 09:25:50;;;;;;;35.10;24.85;;;8.80;99.90;;;;;;5073467;28;20079;-69
2021/12/14 09:28:17;;;;;;;32.85;23.98;;;8.80;99.90;;;;;;5072926;28;20041;-70
2021/12/14 09:30:49;;;;;;;36.17;24.33;;;8.80;99.90;;;;;;5073844;28;20043;-70
2021/12/14 09:33:16;;;;;;;36.35;24.05;;;8.80;99.90;;;;;;5091111;28;20048;-69
2021/12/14 09:35:43;;;;;;;31.92;22.30;;;8.80;99.90;;;;;;5077265;28;20135;-70
2021/12/14 09:38:11;;;;;;;33.60;24.55;;;8.80;99.90;;;;;;5077129;28;20070;-70
2021/12/14 09:40:59;;;;;;;35.67;24.48;;;8.90;99.90;;;;;;5077106;28;20472;-70
2021/12/14 09:43:24;;;;;;;32.45;23.50;;;8.80;99.90;;;;;;5083442;28;20040;-68
2021/12/14 09:45:55;;;;;;;35.03;23.98;;;8.80;99.90;;;;;;5077127;28;20036;-69
2021/12/14 09:48:32;;;;;;;33.90;23.65;;;8.90;99.90;;;;;;5076983;28;20052;-70
2021/12/14 09:51:07;;;;;;;33.88;23.13;;;9.00;99.90;;;;;;5077161;28;20048;-71
2021/12/14 09:53:36;;;;;;;34.38;24.40;;;9.00;99.90;;;;;;5084540;28;20044;-70
2021/12/14 09:56:04;;;;;;;35.13;24.05;;;9.00;99.90;;;;;;5076870;28;20076;-70
2021/12/14 09:58:36;;;;;;;33.17;22.65;;;9.00;99.90;;;;;;5076522;28;20036;-69
2021/12/14 10:01:24;;;;;;;33.30;22.30;;;9.00;99.90;;;;;;5076351;28;20457;-70
2021/12/14 10:03:53;;;;;;;37.95;23.85;;;9.00;99.90;;;;;;5077066;28;20040;-70
2021/12/14 10:06:26;;;;;;;33.30;22.80;;;9.00;99.90;;;;;;5076767;28;20048;-70
2021/12/14 10:09:03;;;;;;;32.53;21.88;;;9.00;99.90;;;;;;5076375;28;20052;-70
2021/12/14 10:12:02;;;;;;;30.42;21.35;;;9.00;99.90;;;;;;5079840;28;20032;-70
2021/12/14 10:14:33;;;;;;;36.47;23.27;;;9.00;99.90;;;;;;5096710;28;20129;-69
2021/12/14 10:17:00;;;;;;;31.30;22.50;;;9.10;99.90;;;;;;5096180;28;20441;-69
2021/12/14 10:19:29;;;;;;;31.25;22.45;;;9.10;99.90;;;;;;5085960;28;20040;-71
2021/12/14 10:22:26;;;;;;;33.63;22.33;;;9.10;99.90;;;;;;5082890;28;20044;-70
2021/12/14 10:25:03;;;;;;;33.33;20.58;;;9.10;99.90;;;;;;5079518;28;20063;-70
2021/12/14 10:27:31;;;;;;;33.00;20.90;;;9.10;99.90;;;;;;5096133;28;20039;-70
2021/12/14 10:29:59;;;;;;;32.53;21.42;;;9.10;99.90;;;;;;5082616;28;20465;-71
2021/12/14 10:32:31;;;;;;;34.45;22.90;;;9.10;99.90;;;;;;5081814;28;20169;-70
2021/12/14 10:35:02;;;;;;;37.80;24.23;;;9.10;99.90;;;;;;5076191;28;20055;-70
2021/12/14 10:38:12;;;;;;;32.45;22.70;;;9.10;99.90;;;;;;5075889;28;20036;-70
2021/12/14 10:43:19;;;;;;;33.10;21.30;;;9.10;99.90;;;;;;5093388;28;20051;-67
2021/12/14 10:45:50;;;;;;;34.75;22.40;;;9.20;99.90;;;;;;5079845;28;20048;-70
2021/12/14 10:48:19;;;;;;;33.00;22.05;;;9.10;99.90;;;;;;5075774;28;20040;-70
2021/12/14 10:50:48;;;;;;;34.38;22.35;;;9.10;99.90;;;;;;5074670;28;20399;-70
2021/12/14 10:53:16;;;;;;;32.70;22.17;;;9.10;99.90;;;;;;5082571;28;20044;-70
2021/12/14 10:55:52;;;;;;;37.42;23.23;;;9.10;99.90;;;;;;5074946;28;20048;-72
2021/12/14 10:58:22;;;;;;;36.10;22.33;;;9.10;99.90;;;;;;5075408;28;20047;-69
2021/12/14 11:00:56;;;;;;;33.33;22.85;;;9.10;99.90;;;;;;5075298;28;20374;-69
2021/12/14 11:03:26;;;;;;;33.45;21.83;;;9.00;99.90;;;;;;5094241;28;20123;-69
2021/12/14 11:05:56;;;;;;;38.85;23.85;;;9.10;99.90;;;;;;5096039;28;20116;-69
2021/12/14 11:11:03;;;;;;;37.92;23.77;;;9.00;99.90;;;;;;5075638;28;20044;-70
2021/12/14 11:13:50;;;;;;;33.72;22.48;;;9.00;99.90;;;;;;5095005;28;20059;-70
2021/12/14 11:16:32;;;;;;;37.05;23.40;;;9.10;99.90;;;;;;5077225;28;20109;-70
2021/12/14 11:19:02;;;;;;;34.78;21.92;;;9.00;99.90;;;;;;5075348;28;20102;-71
2021/12/14 11:21:28;;;;;;;37.22;22.00;;;9.10;99.90;;;;;;5077361;28;20041;-71
2021/12/14 11:23:55;;;;;;;35.75;21.25;;;9.00;99.90;;;;;;5095623;28;20079;-71
2021/12/14 11:26:32;;;;;;;36.10;22.23;;;9.10;99.90;;;;;;5095528;28;20033;-71
2021/12/14 11:29:05;;;;;;;34.33;21.95;;;9.10;99.90;;;;;;5083980;28;20044;-71
2021/12/14 11:31:41;;;;;;;34.95;22.13;;;9.00;99.90;;;;;;5093641;28;20127;-71
2021/12/14 11:34:12;;;;;;;34.22;22.60;;;9.10;99.90;;;;;;5095657;28;20040;-71
2021/12/14 11:36:42;;;;;;;31.95;20.70;;;9.00;99.90;;;;;;5094786;28;20111;-71
2021/12/14 11:39:25;;;;;;;36.45;22.20;;;9.10;99.90;;;;;;5095656;28;20040;-71
2021/12/14 11:42:12;;;;;;;36.35;21.50;;;9.10;99.90;;;;;;5095479;28;20051;-71
2021/12/14 11:44:44;;;;;;;31.73;20.95;;;9.00;99.90;;;;;;5095281;28;20087;-70
2021/12/14 11:49:56;;;;;;;31.58;20.42;;;9.10;99.90;;;;;;5095406;28;20046;-71
2021/12/14 11:53:04;;;;;;;38.65;22.77;;;9.10;99.90;;;;;;5093884;28;20150;-71
2021/12/14 11:55:36;;;;;;;32.42;20.88;;;9.10;99.90;;;;;;5083218;28;20052;-71
2021/12/14 11:58:20;;;;;;;31.70;19.85;;;9.10;99.90;;;;;;5083682;28;20075;-72
2021/12/14 12:01:16;;;;;;;35.92;20.60;;;9.10;99.90;;;;;;5074787;28;20511;-72
2021/12/14 12:04:06;;;;;;;31.83;20.65;;;9.20;99.90;;;;;;5094888;28;20044;-72
2021/12/14 12:09:33;;;;;;;31.13;19.90;;;9.20;99.90;;;;;;5081899;28;20059;-71
2021/12/14 12:12:07;;;;;;;30.92;19.65;;;9.20;99.90;;;;;;5080249;28;20044;-71
2021/12/14 12:14:39;;;;;;;;;;;9.30;99.90;;;;;;5095185;28;20043;-71
2021/12/14 12:17:10;;;;;;;32.70;21.20;;;9.20;99.90;;;;;;5094468;28;19930;-71
2021/12/14 12:19:37;;;;;;;30.85;19.33;;;9.20;99.90;;;;;;5089593;28;20370;-70
2021/12/14 12:22:11;;;;;;;35.20;21.58;;;9.30;99.90;;;;;;5081078;28;20067;-71
2021/12/14 12:24:42;;;;;;;29.05;19.27;;;9.30;99.90;;;;;;5094776;28;20040;-71
2021/12/14 12:27:21;;;;;;;29.85;20.77;;;9.40;99.90;;;;;;5080213;28;20090;-72
2021/12/14 12:30:07;;;;;;;33.40;21.15;;;9.40;99.90;;;;;;5074269;28;20339;-71
2021/12/14 12:32:33;;;;;;;33.17;22.15;;;9.40;99.90;;;;;;5066977;28;20048;-72
2021/12/14 12:34:59;;;;;;;33.35;21.77;;;9.30;99.90;;;;;;5094369;28;20062;-71
2021/12/14 12:37:40;;;;;;;39.65;24.48;;;9.40;99.90;;;;;;5094051;28;20044;-71
2021/12/14 12:40:09;;;;;;;34.03;22.52;;;9.30;99.90;;;;;;5094481;28;20062;-71
2021/12/14 12:42:35;;;;;;;32.88;22.15;;;9.40;99.90;;;;;;5094062;28;20153;-72
2021/12/14 12:45:04;;;;;;;37.75;23.10;;;9.40;99.90;;;;;;5094258;28;20135;-72
2021/12/14 12:47:29;;;;;;;34.00;22.75;;;9.40;99.90;;;;;;5093791;28;20028;-71
2021/12/14 12:49:57;;;;;;;39.60;25.08;;;9.40;99.90;;;;;;5094258;28;20377;-71
2021/12/14 12:52:36;;;;;;;41.63;24.83;;;9.40;99.90;;;;;;5093126;28;20044;-71
2021/12/14 12:55:11;;;;;;;38.80;23.88;;;9.40;99.90;;;;;;5094115;28;20119;-71
2021/12/14 12:58:11;;;;;;;35.83;22.75;;;9.40;99.90;;;;;;5093736;28;20054;-71
2021/12/14 13:00:43;;;;;;;39.63;22.95;;;9.40;99.90;;;;;;5073854;28;20048;-71
2021/12/14 13:03:36;;;;;;;35.13;22.85;;;9.40;99.90;;;;;;5089155;28;20093;-71
2021/12/14 13:06:14;;;;;;;34.53;23.40;;;9.40;99.90;;;;;;5093604;28;20048;-70
2021/12/14 13:08:46;;;;;;;38.53;24.85;;;9.40;99.90;;;;;;5094112;28;20101;-70
2021/12/14 13:11:30;;;;;;;36.83;24.08;;;9.40;99.90;;;;;;5093774;28;20522;-72
2021/12/14 13:13:58;;;;;;;39.03;24.23;;;9.40;99.90;;;;;;5073775;28;20040;-70
2021/12/14 13:16:33;;;;;;;37.58;23.50;;;9.50;99.90;;;;;;5073328;28;20041;-70
2021/12/14 13:19:13;;;;;;;36.47;22.90;;;9.40;99.90;;;;;;5072826;28;20052;-70
2021/12/14 13:21:42;;;;;;;42.83;23.67;;;9.40;99.90;;;;;;5076048;28;20549;-70
2021/12/14 13:24:11;;;;;;;35.55;23.27;;;9.40;99.90;;;;;;5088847;28;20119;-70
2021/12/14 13:26:43;;;;;;;40.63;24.85;;;9.40;99.90;;;;;;5073301;28;20040;-70
2021/12/14 13:29:11;;;;;;;37.15;22.52;;;9.50;99.90;;;;;;5073665;28;20445;-71
2021/12/14 13:31:43;;;;;;;38.40;24.60;;;9.50;99.90;;;;;;5075971;28;20334;-72
2021/12/14 13:34:14;;;;;;;37.30;23.33;;;9.50;99.90;;;;;;5077963;28;20900;-71
2021/12/14 13:36:41;;;;;;;41.83;23.75;;;9.40;99.90;;;;;;5073439;28;20072;-71
2021/12/14 13:39:10;;;;;;;41.67;24.58;;;9.50;99.90;;;;;;5073224;28;20373;-71
2021/12/14 13:42:00;;;;;;;40.00;24.25;;;9.50;99.90;;;;;;5075688;28;20071;-71